Time;durP1;ratioP1;P1;durP2;ratioP2;P2;SDS_P1;SDS_P2;PMS_P1;PMS_P2;Temp;Humidity;BMP_temperature;BMP_pressure;BME280_temperature;BME280_humidity;BME280_pressure;Samples;Min_cycle;Max_cycle;Signal;HPM_P1;HPM_P2
2022/10/29 00:00:22;;;;;;;16.05;6.97;;;;;;;;;;4861433;29;20104;-77
2022/10/29 00:02:48;;;;;;;11.18;6.70;;;;;;;;;;4859100;29;20050;-77
2022/10/29 00:05:14;;;;;;;11.65;6.28;;;;;;;;;;4843333;29;20034;-77
2022/10/29 00:07:40;;;;;;;10.32;6.30;;;;;;;;;;4856443;29;20080;-77
2022/10/29 00:10:06;;;;;;;10.77;6.93;;;;;;;;;;4862269;29;20079;-77
2022/10/29 00:12:32;;;;;;;14.07;7.78;;;;;;;;;;4861857;29;20400;-77
2022/10/29 00:14:58;;;;;;;13.60;7.60;;;;;;;;;;4861722;29;20108;-77
2022/10/29 00:17:24;;;;;;;15.75;7.32;;;;;;;;;;4861158;29;20564;-77
2022/10/29 00:19:50;;;;;;;13.40;7.07;;;;;;;;;;4843327;29;20117;-77
2022/10/29 00:22:16;;;;;;;10.45;7.40;;;;;;;;;;4851721;29;20097;-77
2022/10/29 00:24:41;;;;;;;13.80;7.13;;;;;;;;;;4861138;29;20544;-77
2022/10/29 00:27:07;;;;;;;12.40;6.78;;;;;;;;;;4860771;29;20045;-77
2022/10/29 00:29:33;;;;;;;10.30;6.97;;;;;;;;;;4860072;29;20030;-77
2022/10/29 00:31:59;;;;;;;11.10;6.55;;;;;;;;;;4860589;29;20037;-77
2022/10/29 00:34:25;;;;;;;10.13;7.07;;;;;;;;;;4845930;29;20057;-77
2022/10/29 00:36:51;;;;;;;8.52;6.32;;;;;;;;;;4847558;29;20049;-77
2022/10/29 00:39:17;;;;;;;9.57;6.13;;;;;;;;;;4861075;29;20037;-77
2022/10/29 00:41:43;;;;;;;8.25;5.53;;;;;;;;;;4861316;29;20040;-76
2022/10/29 00:44:19;;;;;;;9.93;5.80;;;;;;;;;;4860821;29;20453;-77
2022/10/29 00:46:49;;;;;;;9.45;5.72;;;;;;;;;;4860080;29;20060;-77
2022/10/29 00:49:16;;;;;;;7.25;5.60;;;;;;;;;;4846529;29;20042;-78
2022/10/29 00:51:44;;;;;;;9.55;6.05;;;;;;;;;;4846027;29;20029;-75
2022/10/29 00:54:12;;;;;;;10.02;6.10;;;;;;;;;;4860834;29;20045;-76
2022/10/29 00:56:49;;;;;;;10.82;5.63;;;;;;;;;;4860558;29;20116;-76
2022/10/29 00:59:16;;;;;;;9.50;5.95;;;;;;;;;;4857960;29;20481;-75
2022/10/29 01:01:44;;;;;;;12.00;5.68;;;;;;;;;;4851746;29;20074;-75
2022/10/29 01:04:10;;;;;;;10.68;6.00;;;;;;;;;;4846832;29;20042;-76
2022/10/29 01:06:37;;;;;;;11.50;6.70;;;;;;;;;;4843995;29;20022;-77
2022/10/29 01:09:03;;;;;;;11.18;6.88;;;;;;;;;;4860784;29;20037;-76
2022/10/29 01:11:55;;;;;;;9.48;7.70;;;;;;;;;;4860454;29;20088;-77
2022/10/29 01:14:58;;;;;;;13.82;7.70;;;;;;;;;;4860578;29;20405;-77
2022/10/29 01:18:00;;;;;;;8.55;6.38;;;;;;;;;;4871263;29;20546;-76
2022/10/29 01:20:45;;;;;;;9.10;5.93;;;;;;;;;;4841967;29;20179;-76
2022/10/29 01:23:38;;;;;;;11.13;6.68;;;;;;;;;;4854993;29;20037;-77
2022/10/29 01:26:25;;;;;;;11.77;6.80;;;;;;;;;;4860720;29;20041;-76
2022/10/29 01:29:06;;;;;;;8.88;6.53;;;;;;;;;;4860234;29;20064;-76
2022/10/29 01:31:51;;;;;;;9.80;6.20;;;;;;;;;;4860421;29;20041;-77
2022/10/29 01:34:50;;;;;;;11.18;6.13;;;;;;;;;;4846104;29;20042;-76
2022/10/29 01:37:39;;;;;;;9.82;5.88;;;;;;;;;;4846563;29;20050;-76
2022/10/29 01:40:27;;;;;;;10.55;6.68;;;;;;;;;;4860374;29;20041;-76
2022/10/29 01:42:57;;;;;;;11.65;6.55;;;;;;;;;;4859546;29;20493;-76
2022/10/29 01:45:51;;;;;;;9.98;5.90;;;;;;;;;;4859852;29;20068;-76
2022/10/29 01:48:27;;;;;;;8.45;5.60;;;;;;;;;;4836494;29;20042;-76
2022/10/29 01:50:59;;;;;;;10.70;5.68;;;;;;;;;;4841433;29;20490;-76
2022/10/29 01:53:27;;;;;;;15.15;6.38;;;;;;;;;;4854705;29;20549;-77
2022/10/29 01:55:53;;;;;;;8.70;5.10;;;;;;;;;;4860027;29;20026;-76
2022/10/29 01:58:19;;;;;;;8.07;5.28;;;;;;;;;;4859522;29;20053;-76
2022/10/29 02:01:28;;;;;;;9.65;5.22;;;;;;;;;;4859960;29;20082;-76
2022/10/29 02:04:22;;;;;;;11.80;6.28;;;;;;;;;;4848226;29;20061;-76
2022/10/29 02:07:20;;;;;;;10.57;5.95;;;;;;;;;;4841542;29;20045;-76
2022/10/29 02:10:05;;;;;;;8.77;4.88;;;;;;;;;;4839115;29;20061;-76
2022/10/29 02:12:50;;;;;;;9.68;5.15;;;;;;;;;;4846596;29;20757;-77
2022/10/29 02:15:41;;;;;;;9.18;5.63;;;;;;;;;;4855416;29;20041;-76
2022/10/29 02:18:08;;;;;;;9.13;5.35;;;;;;;;;;4857058;29;20125;-76
2022/10/29 02:20:34;;;;;;;7.03;5.00;;;;;;;;;;4859467;29;20039;-77
2022/10/29 02:23:00;;;;;;;16.92;6.63;;;;;;;;;;4859316;29;20421;-77
2022/10/29 02:25:28;;;;;;;7.57;5.05;;;;;;;;;;4859454;29;20021;-76
2022/10/29 02:27:57;;;;;;;7.32;4.80;;;;;;;;;;4858957;29;20038;-76
2022/10/29 02:30:23;;;;;;;8.40;4.95;;;;;;;;;;4859276;29;20041;-75
2022/10/29 02:32:49;;;;;;;7.63;4.97;;;;;;;;;;4856185;29;20479;-75
2022/10/29 02:35:14;;;;;;;8.77;5.07;;;;;;;;;;4840666;29;20063;-76
2022/10/29 02:37:41;;;;;;;9.70;5.50;;;;;;;;;;4845823;29;20400;-77
2022/10/29 02:40:07;;;;;;;10.15;5.75;;;;;;;;;;4859244;29;20037;-76
2022/10/29 02:42:34;;;;;;;8.93;5.45;;;;;;;;;;4859164;29;20073;-76
2022/10/29 02:44:59;;;;;;;8.27;5.30;;;;;;;;;;4859532;29;20208;-76
2022/10/29 02:47:26;;;;;;;10.27;5.00;;;;;;;;;;4873596;29;20100;-76
2022/10/29 02:49:52;;;;;;;8.88;4.75;;;;;;;;;;4859168;29;20082;-76
2022/10/29 02:52:18;;;;;;;8.18;4.90;;;;;;;;;;4859166;29;20049;-77
2022/10/29 02:54:44;;;;;;;9.63;5.30;;;;;;;;;;4859444;29;20029;-76
2022/10/29 02:57:10;;;;;;;8.15;5.22;;;;;;;;;;4859374;29;20041;-76
2022/10/29 02:59:35;;;;;;;6.93;5.07;;;;;;;;;;4859260;29;20061;-77
2022/10/29 03:02:02;;;;;;;9.80;5.10;;;;;;;;;;4859061;29;20129;-77
2022/10/29 03:04:27;;;;;;;10.45;5.90;;;;;;;;;;4858918;29;20618;-76
2022/10/29 03:06:53;;;;;;;11.70;5.90;;;;;;;;;;4859289;29;20144;-76
2022/10/29 03:09:19;;;;;;;9.35;5.50;;;;;;;;;;4859458;29;20101;-76
2022/10/29 03:11:46;;;;;;;12.50;6.60;;;;;;;;;;4859247;29;20400;-76
2022/10/29 03:14:11;;;;;;;10.02;5.82;;;;;;;;;;4859130;29;20504;-77
2022/10/29 03:16:37;;;;;;;8.77;5.55;;;;;;;;;;4858392;29;20200;-76
2022/10/29 03:19:03;;;;;;;15.82;6.05;;;;;;;;;;4858983;29;20045;-76
2022/10/29 03:21:29;;;;;;;10.80;6.47;;;;;;;;;;4858984;29;20042;-77
2022/10/29 03:23:55;;;;;;;13.63;5.90;;;;;;;;;;4860000;29;20029;-76
2022/10/29 03:26:21;;;;;;;10.27;5.40;;;;;;;;;;4862420;29;20037;-76
2022/10/29 03:28:47;;;;;;;11.07;5.07;;;;;;;;;;4861909;29;20026;-76
2022/10/29 03:31:13;;;;;;;9.30;5.00;;;;;;;;;;4862355;29;20034;-76
2022/10/29 03:33:38;;;;;;;7.63;4.90;;;;;;;;;;4860805;29;20041;-76
2022/10/29 03:36:06;;;;;;;8.13;5.20;;;;;;;;;;4860982;29;20105;-75
2022/10/29 03:38:33;;;;;;;12.38;5.75;;;;;;;;;;4854343;29;20430;-76
2022/10/29 03:40:59;;;;;;;11.65;5.63;;;;;;;;;;4844960;29;20030;-76
2022/10/29 03:43:25;;;;;;;11.73;6.45;;;;;;;;;;4850962;29;20145;-76
2022/10/29 03:45:56;;;;;;;14.80;5.15;;;;;;;;;;4862137;29;20045;-76
2022/10/29 03:48:23;;;;;;;10.65;5.43;;;;;;;;;;4861546;29;20397;-76
2022/10/29 03:51:01;;;;;;;14.63;6.63;;;;;;;;;;4861307;29;20046;-76
2022/10/29 03:53:28;;;;;;;9.10;5.28;;;;;;;;;;4852613;29;20038;-77
2022/10/29 03:55:55;;;;;;;12.27;6.47;;;;;;;;;;4850839;29;20438;-76
2022/10/29 03:58:22;;;;;;;12.90;6.38;;;;;;;;;;4853857;29;20093;-77
2022/10/29 04:00:59;;;;;;;9.82;5.93;;;;;;;;;;4853261;29;20018;-76
2022/10/29 04:03:27;;;;;;;10.18;5.47;;;;;;;;;;4849771;29;20489;-77
2022/10/29 04:05:54;;;;;;;10.05;5.50;;;;;;;;;;4855172;29;20090;-77
2022/10/29 04:08:20;;;;;;;9.15;6.32;;;;;;;;;;4851190;29;20026;-77
2022/10/29 04:10:48;;;;;;;9.80;5.72;;;;;;;;;;4848475;29;20063;-76
2022/10/29 04:13:15;;;;;;;13.00;6.00;;;;;;;;;;4844658;29;20030;-77
2022/10/29 04:15:41;;;;;;;7.95;5.25;;;;;;;;;;4860198;29;20022;-76
2022/10/29 04:18:08;;;;;;;10.10;5.85;;;;;;;;;;4860089;29;20481;-76
2022/10/29 04:20:34;;;;;;;12.02;5.88;;;;;;;;;;4852981;29;20060;-77
2022/10/29 04:23:00;;;;;;;18.88;6.93;;;;;;;;;;4847238;29;20053;-77
2022/10/29 04:25:26;;;;;;;17.67;8.30;;;;;;;;;;4850103;29;20470;-75
2022/10/29 04:27:55;;;;;;;15.82;7.97;;;;;;;;;;4851900;29;20033;-76
2022/10/29 04:30:23;;;;;;;14.27;7.22;;;;;;;;;;4853291;29;20021;-76
2022/10/29 04:32:49;;;;;;;13.48;7.13;;;;;;;;;;4861767;29;20477;-76
2022/10/29 04:35:15;;;;;;;9.32;6.22;;;;;;;;;;4860724;29;20040;-76
2022/10/29 04:37:41;;;;;;;9.57;6.05;;;;;;;;;;4861799;29;20093;-76
2022/10/29 04:40:08;;;;;;;15.65;7.13;;;;;;;;;;4861943;29;20124;-77
2022/10/29 04:42:43;;;;;;;13.18;6.32;;;;;;;;;;4861897;29;20033;-76
2022/10/29 04:45:09;;;;;;;18.63;8.38;;;;;;;;;;4857901;29;20533;-76
2022/10/29 04:47:34;;;;;;;17.65;7.43;;;;;;;;;;4851680;29;20045;-76
2022/10/29 04:50:00;;;;;;;11.52;6.38;;;;;;;;;;4853601;29;20111;-78
2022/10/29 04:52:26;;;;;;;12.02;7.28;;;;;;;;;;4852876;29;20113;-76
2022/10/29 04:54:52;;;;;;;10.52;6.18;;;;;;;;;;4850918;29;20037;-75
2022/10/29 04:57:17;;;;;;;17.08;7.93;;;;;;;;;;4851608;29;20029;-76
2022/10/29 04:59:43;;;;;;;13.95;6.70;;;;;;;;;;4852672;29;20034;-76
2022/10/29 05:02:09;;;;;;;10.95;6.95;;;;;;;;;;4852995;29;20488;-78
2022/10/29 05:04:35;;;;;;;14.35;7.15;;;;;;;;;;4845714;29;20037;-77
2022/10/29 05:07:01;;;;;;;18.83;8.55;;;;;;;;;;4847720;29;20427;-76
2022/10/29 05:09:27;;;;;;;10.60;5.95;;;;;;;;;;4851734;29;20030;-77
2022/10/29 05:11:53;;;;;;;14.18;7.28;;;;;;;;;;4851412;29;20055;-76
2022/10/29 05:14:18;;;;;;;14.80;7.10;;;;;;;;;;4852497;29;20034;-76
2022/10/29 05:16:44;;;;;;;17.38;9.00;;;;;;;;;;4851179;29;20026;-76
2022/10/29 05:19:10;;;;;;;16.35;8.70;;;;;;;;;;4851358;29;20393;-76
2022/10/29 05:21:36;;;;;;;14.35;7.38;;;;;;;;;;4845483;29;20026;-76
2022/10/29 05:24:02;;;;;;;10.60;7.32;;;;;;;;;;4842814;29;20477;-78
2022/10/29 05:26:31;;;;;;;14.27;7.35;;;;;;;;;;4842309;29;20038;-75
2022/10/29 05:28:57;;;;;;;16.10;7.97;;;;;;;;;;4852013;29;20037;-76
2022/10/29 05:31:22;;;;;;;14.10;7.20;;;;;;;;;;4850048;29;20069;-76
2022/10/29 05:33:49;;;;;;;13.90;7.95;;;;;;;;;;4852175;29;20476;-76
2022/10/29 05:36:15;;;;;;;11.30;7.65;;;;;;;;;;4850537;29;20565;-76
2022/10/29 05:38:41;;;;;;;10.93;6.32;;;;;;;;;;4850956;29;20041;-76
2022/10/29 05:41:07;;;;;;;10.73;5.72;;;;;;;;;;4851883;29;20109;-77
2022/10/29 05:43:33;;;;;;;11.55;6.95;;;;;;;;;;4849782;29;20174;-77
2022/10/29 05:46:02;;;;;;;15.77;6.95;;;;;;;;;;4847364;29;20473;-77
2022/10/29 05:48:28;;;;;;;13.10;6.50;;;;;;;;;;4860483;29;20481;-77
2022/10/29 05:50:55;;;;;;;16.00;7.15;;;;;;;;;;4862022;29;20033;-77
2022/10/29 05:53:21;;;;;;;13.00;5.90;;;;;;;;;;4858443;29;20037;-77
2022/10/29 05:55:47;;;;;;;12.57;6.35;;;;;;;;;;4860304;29;20477;-77
2022/10/29 05:58:13;;;;;;;13.48;6.38;;;;;;;;;;4860391;29;20041;-77
2022/10/29 06:00:42;;;;;;;8.85;5.93;;;;;;;;;;4859080;29;20169;-76
2022/10/29 06:03:15;;;;;;;9.95;6.65;;;;;;;;;;4859088;29;20554;-78
2022/10/29 06:05:41;;;;;;;11.10;6.68;;;;;;;;;;4860562;29;20174;-77
2022/10/29 06:08:07;;;;;;;15.90;7.25;;;;;;;;;;4859148;29;20121;-77
2022/10/29 06:10:33;;;;;;;17.17;9.23;;;;;;;;;;4858203;29;20409;-77
2022/10/29 06:12:59;;;;;;;19.40;14.50;;;;;;;;;;4852536;29;20473;-77
2022/10/29 06:15:24;;;;;;;22.08;15.43;;;;;;;;;;4851520;29;20117;-78
2022/10/29 06:17:50;;;;;;;18.38;10.70;;;;;;;;;;4852972;29;20033;-77
2022/10/29 06:20:19;;;;;;;16.23;10.23;;;;;;;;;;4853982;29;20086;-78
2022/10/29 06:22:45;;;;;;;20.92;10.65;;;;;;;;;;4851015;29;20076;-77
2022/10/29 06:25:11;;;;;;;12.63;8.35;;;;;;;;;;4849971;29;20056;-78
2022/10/29 06:27:37;;;;;;;20.17;9.50;;;;;;;;;;4851240;29;20148;-78
2022/10/29 06:30:04;;;;;;;12.38;8.63;;;;;;;;;;4853121;29;20029;-78
2022/10/29 06:32:30;;;;;;;17.25;10.50;;;;;;;;;;4854441;29;20425;-78
2022/10/29 06:34:56;;;;;;;17.88;11.23;;;;;;;;;;4860582;29;20065;-78
2022/10/29 06:37:22;;;;;;;27.85;18.85;;;;;;;;;;4860055;29;20045;-77
2022/10/29 06:39:48;;;;;;;16.63;9.90;;;;;;;;;;4860157;29;20052;-79
2022/10/29 06:42:14;;;;;;;14.63;9.10;;;;;;;;;;4860527;29;20045;-80
2022/10/29 06:44:39;;;;;;;14.30;9.25;;;;;;;;;;4860258;29;20485;-77
2022/10/29 06:47:05;;;;;;;11.95;7.63;;;;;;;;;;4857735;29;20021;-79
2022/10/29 06:49:31;;;;;;;16.77;8.05;;;;;;;;;;4860143;29;20065;-76
2022/10/29 06:51:57;;;;;;;15.48;9.60;;;;;;;;;;4859602;29;20037;-78
2022/10/29 06:54:23;;;;;;;19.45;10.07;;;;;;;;;;4859440;29;20033;-79
2022/10/29 06:56:48;;;;;;;15.43;9.10;;;;;;;;;;4860082;29;20025;-80
2022/10/29 06:59:14;;;;;;;18.95;10.10;;;;;;;;;;4862540;29;20029;-77
2022/10/29 07:01:40;;;;;;;16.45;12.55;;;;;;;;;;4863167;29;20529;-79
2022/10/29 07:04:06;;;;;;;22.10;12.63;;;;;;;;;;4862877;29;20029;-77
2022/10/29 07:06:35;;;;;;;21.02;13.00;;;;;;;;;;4861691;29;20036;-78
2022/10/29 07:09:01;;;;;;;22.95;12.80;;;;;;;;;;4862769;29;20033;-77
2022/10/29 07:11:26;;;;;;;20.92;13.95;;;;;;;;;;4863533;29;20382;-81
2022/10/29 07:13:52;;;;;;;18.42;12.55;;;;;;;;;;4863042;29;20416;-77
2022/10/29 07:16:18;;;;;;;23.08;14.30;;;;;;;;;;4862658;29;20423;-78
2022/10/29 07:18:44;;;;;;;25.45;15.48;;;;;;;;;;4863166;29;20041;-77
2022/10/29 07:21:10;;;;;;;31.13;14.85;;;;;;;;;;4862342;29;20393;-79
2022/10/29 07:23:36;;;;;;;30.52;15.02;;;;;;;;;;4861787;29;20034;-78
2022/10/29 07:26:01;;;;;;;20.67;13.63;;;;;;;;;;4862933;29;20077;-78
2022/10/29 07:28:27;;;;;;;20.70;10.85;;;;;;;;;;4863010;29;20038;-78
2022/10/29 07:30:58;;;;;;;18.90;8.95;;;;;;;;;;4862537;29;20040;-77
2022/10/29 07:33:26;;;;;;;15.63;8.68;;;;;;;;;;4862291;29;20457;-77
2022/10/29 07:35:55;;;;;;;13.88;7.90;;;;;;;;;;4862771;29;20052;-77
2022/10/29 07:38:21;;;;;;;14.07;8.13;;;;;;;;;;4862307;29;20041;-78
2022/10/29 07:40:48;;;;;;;13.23;7.25;;;;;;;;;;4861972;29;20089;-76
2022/10/29 07:43:18;;;;;;;11.77;7.80;;;;;;;;;;4862048;29;20046;-78
2022/10/29 07:45:45;;;;;;;9.43;6.68;;;;;;;;;;4862335;29;20102;-78
2022/10/29 07:48:11;;;;;;;11.23;6.55;;;;;;;;;;4862606;29;20072;-83
2022/10/29 07:50:38;;;;;;;9.88;6.07;;;;;;;;;;4864038;29;20032;-83
2022/10/29 07:53:05;;;;;;;12.68;6.38;;;;;;;;;;4876751;29;20137;-84
2022/10/29 07:55:32;;;;;;;11.07;6.88;;;;;;;;;;4861447;29;20385;-80
2022/10/29 07:58:00;;;;;;;10.02;5.68;;;;;;;;;;4862537;29;20542;-82
2022/10/29 08:00:36;;;;;;;11.63;5.60;;;;;;;;;;4862343;29;20389;-79
2022/10/29 08:03:02;;;;;;;12.85;5.95;;;;;;;;;;4858288;29;20397;-79
2022/10/29 08:05:29;;;;;;;9.60;5.65;;;;;;;;;;4857000;29;20037;-80
2022/10/29 08:07:55;;;;;;;9.00;6.05;;;;;;;;;;4855161;29;20516;-79
2022/10/29 08:10:22;;;;;;;11.80;5.95;;;;;;;;;;4852376;29;20045;-79
2022/10/29 08:12:53;;;;;;;9.32;5.88;;;;;;;;;;4852236;29;20078;-78
2022/10/29 08:15:20;;;;;;;13.57;6.32;;;;;;;;;;4853275;29;20121;-79
2022/10/29 08:17:46;;;;;;;10.77;5.72;;;;;;;;;;4851585;29;20018;-79
2022/10/29 08:20:13;;;;;;;13.82;5.85;;;;;;;;;;4850440;29;20044;-79
2022/10/29 08:22:39;;;;;;;8.98;5.82;;;;;;;;;;4852762;29;20481;-79
2022/10/29 08:25:05;;;;;;;10.45;5.47;;;;;;;;;;4850779;29;20082;-79
2022/10/29 08:27:30;;;;;;;10.00;5.50;;;;;;;;;;4852008;29;20026;-79
2022/10/29 08:29:56;;;;;;;15.15;6.35;;;;;;;;;;4858734;29;20026;-79
2022/10/29 08:32:22;;;;;;;8.43;5.63;;;;;;;;;;4857821;29;20105;-79
2022/10/29 08:34:48;;;;;;;10.00;5.95;;;;;;;;;;4859958;29;20045;-76
2022/10/29 08:37:13;;;;;;;11.20;6.38;;;;;;;;;;4858843;29;20105;-79
2022/10/29 08:39:39;;;;;;;12.05;5.60;;;;;;;;;;4860697;29;20098;-79
2022/10/29 08:42:41;;;;;;;11.80;5.28;;;;;;;;;;4860734;29;20082;-78
2022/10/29 08:45:12;;;;;;;11.18;5.30;;;;;;;;;;4860567;29;20121;-78
2022/10/29 08:48:01;;;;;;;9.82;5.25;;;;;;;;;;4855116;29;20062;-79
2022/10/29 08:50:32;;;;;;;10.80;5.88;;;;;;;;;;4832008;29;20354;-76
2022/10/29 08:53:00;;;;;;;9.55;5.40;;;;;;;;;;4847384;29;20101;-78
2022/10/29 08:55:35;;;;;;;9.23;5.25;;;;;;;;;;4859925;29;20352;-76
2022/10/29 08:58:34;;;;;;;8.35;5.25;;;;;;;;;;4858297;29;20461;-77
2022/10/29 09:01:00;;;;;;;9.55;5.18;;;;;;;;;;4856825;29;20393;-77
2022/10/29 09:03:28;;;;;;;9.25;5.00;;;;;;;;;;4859627;29;20116;-78
2022/10/29 09:06:12;;;;;;;9.05;5.13;;;;;;;;;;4856732;29;20046;-77
2022/10/29 09:08:55;;;;;;;12.30;4.72;;;;;;;;;;4860506;29;20485;-78
2022/10/29 09:11:30;;;;;;;10.15;4.07;;;;;;;;;;4860754;29;20158;-76
2022/10/29 09:14:14;;;;;;;9.13;4.63;;;;;;;;;;4860304;29;20037;-79
2022/10/29 09:16:56;;;;;;;9.50;5.00;;;;;;;;;;4860094;29;20109;-78
2022/10/29 09:20:07;;;;;;;7.80;4.38;;;;;;;;;;4860526;29;20037;-77
2022/10/29 09:22:46;;;;;;;9.52;4.53;;;;;;;;;;4853976;29;20049;-78
2022/10/29 09:25:43;;;;;;;6.68;4.22;;;;;;;;;;4860772;29;20048;-78
2022/10/29 09:28:11;;;;;;;6.05;4.13;;;;;;;;;;4858046;29;20426;-77
2022/10/29 09:30:49;;;;;;;8.30;3.90;;;;;;;;;;4860645;29;20034;-76
2022/10/29 09:33:18;;;;;;;6.25;4.00;;;;;;;;;;4859381;29;20485;-77
2022/10/29 09:35:53;;;;;;;7.13;3.47;;;;;;;;;;4859922;29;20509;-79
2022/10/29 09:38:21;;;;;;;7.30;3.45;;;;;;;;;;4860350;29;20393;-77
2022/10/29 09:40:47;;;;;;;7.65;4.00;;;;;;;;;;4858737;29;20040;-78
2022/10/29 09:43:31;;;;;;;7.57;3.67;;;;;;;;;;4860085;29;20481;-79
2022/10/29 09:46:29;;;;;;;11.32;4.25;;;;;;;;;;4860118;29;20033;-77
2022/10/29 09:49:03;;;;;;;15.55;4.97;;;;;;;;;;4860104;29;20553;-78
2022/10/29 09:51:35;;;;;;;7.68;3.85;;;;;;;;;;4860506;29;20041;-78
2022/10/29 09:54:01;;;;;;;5.38;3.35;;;;;;;;;;4862669;29;20068;-79
2022/10/29 09:56:27;;;;;;;10.20;3.85;;;;;;;;;;4860206;29;20032;-79
2022/10/29 09:59:05;;;;;;;9.57;3.40;;;;;;;;;;4860101;29;20041;-78
2022/10/29 10:01:31;;;;;;;6.80;3.28;;;;;;;;;;4865853;29;20045;-76
2022/10/29 10:04:01;;;;;;;10.77;3.95;;;;;;;;;;4860245;29;20101;-77
2022/10/29 10:06:27;;;;;;;8.85;3.72;;;;;;;;;;4859686;29;20040;-77
2022/10/29 10:08:59;;;;;;;7.38;4.00;;;;;;;;;;4859831;29;20021;-77
2022/10/29 10:11:30;;;;;;;9.40;3.42;;;;;;;;;;4859968;29;20041;-76
2022/10/29 10:13:58;;;;;;;7.65;3.55;;;;;;;;;;4859756;29;20045;-75
2022/10/29 10:16:28;;;;;;;5.65;3.47;;;;;;;;;;4860153;29;20108;-78
2022/10/29 10:18:54;;;;;;;7.72;3.83;;;;;;;;;;4858732;29;20045;-78
2022/10/29 10:21:29;;;;;;;5.35;3.13;;;;;;;;;;4859718;29;20025;-77
2022/10/29 10:23:59;;;;;;;9.45;4.35;;;;;;;;;;4859703;29;20033;-76
2022/10/29 10:26:29;;;;;;;8.30;4.35;;;;;;;;;;4859642;29;20026;-78
2022/10/29 10:29:18;;;;;;;6.32;3.85;;;;;;;;;;4859697;29;20057;-78
2022/10/29 10:31:46;;;;;;;7.60;3.90;;;;;;;;;;4859927;29;20505;-79
2022/10/29 10:34:20;;;;;;;8.48;4.00;;;;;;;;;;4861961;29;20038;-76
2022/10/29 10:36:50;;;;;;;13.90;8.75;;;;;;;;;;4863189;29;20489;-78
2022/10/29 10:39:29;;;;;;;12.63;5.25;;;;;;;;;;4864389;29;20141;-78
2022/10/29 10:41:59;;;;;;;15.13;8.23;;;;;;;;;;4862045;29;20519;-78
2022/10/29 10:44:26;;;;;;;8.57;5.90;;;;;;;;;;4863260;29;20034;-77
2022/10/29 10:46:55;;;;;;;11.95;5.80;;;;;;;;;;4862784;29;20086;-78
2022/10/29 10:49:34;;;;;;;9.02;5.40;;;;;;;;;;4861033;29;20053;-79
2022/10/29 10:52:06;;;;;;;6.78;4.78;;;;;;;;;;4851455;29;20120;-78
2022/10/29 10:54:43;;;;;;;9.60;4.40;;;;;;;;;;4856041;29;20069;-79
2022/10/29 10:57:12;;;;;;;7.22;4.20;;;;;;;;;;4851722;29;20033;-78
2022/10/29 11:00:08;;;;;;;7.03;3.72;;;;;;;;;;4854240;29;20026;-77
2022/10/29 11:02:57;;;;;;;8.45;3.83;;;;;;;;;;4854266;29;20042;-75
2022/10/29 11:05:37;;;;;;;6.63;3.45;;;;;;;;;;4846538;29;20210;-76
2022/10/29 11:08:29;;;;;;;10.70;4.13;;;;;;;;;;4852586;29;20030;-76
2022/10/29 11:11:04;;;;;;;8.68;4.57;;;;;;;;;;4852952;29;20378;-78
2022/10/29 11:13:33;;;;;;;11.57;4.07;;;;;;;;;;4852362;29;20049;-79
2022/10/29 11:16:10;;;;;;;8.35;3.72;;;;;;;;;;4854245;29;20033;-79
2022/10/29 11:18:48;;;;;;;7.88;4.32;;;;;;;;;;4861498;29;20033;-79
2022/10/29 11:21:19;;;;;;;6.47;3.72;;;;;;;;;;4862508;29;20237;-78
2022/10/29 11:23:55;;;;;;;6.38;3.88;;;;;;;;;;4863077;29;20072;-80
2022/10/29 11:26:31;;;;;;;5.35;3.60;;;;;;;;;;4862640;29;20041;-77
2022/10/29 11:29:22;;;;;;;4.53;3.33;;;;;;;;;;4859910;29;20041;-78
2022/10/29 11:32:05;;;;;;;7.72;3.72;;;;;;;;;;4862420;29;20033;-78
2022/10/29 11:34:43;;;;;;;9.27;3.63;;;;;;;;;;4862541;29;20044;-79
2022/10/29 11:38:08;;;;;;;9.05;5.40;;;;;;;;;;4861673;29;20060;-78
2022/10/29 11:40:43;;;;;;;7.30;3.78;;;;;;;;;;4783303;30;20100;-80
2022/10/29 11:43:15;;;;;;;6.70;3.97;;;;;;;;;;4787154;29;20143;-78
2022/10/29 11:45:48;;;;;;;9.07;4.30;;;;;;;;;;4830557;29;20054;-79
2022/10/29 11:48:24;;;;;;;6.78;4.50;;;;;;;;;;4861963;29;20045;-76
2022/10/29 11:51:11;;;;;;;6.22;3.80;;;;;;;;;;4861387;29;20385;-77
2022/10/29 11:53:54;;;;;;;5.55;3.58;;;;;;;;;;4862600;29;20069;-77
2022/10/29 11:56:49;;;;;;;6.65;3.58;;;;;;;;;;4862432;29;20033;-78
2022/10/29 11:59:38;;;;;;;5.95;3.65;;;;;;;;;;4861964;29;20048;-78
2022/10/29 12:02:34;;;;;;;8.05;3.80;;;;;;;;;;4861909;29;20682;-78
2022/10/29 12:05:16;;;;;;;7.20;3.55;;;;;;;;;;4862404;29;20045;-78
2022/10/29 12:08:28;;;;;;;8.38;4.47;;;;;;;;;;4862043;29;20432;-78
2022/10/29 12:11:11;;;;;;;5.60;3.80;;;;;;;;;;4862165;29;20911;-78
2022/10/29 12:13:57;;;;;;;8.65;3.97;;;;;;;;;;4861566;29;20101;-77
2022/10/29 12:16:48;;;;;;;8.13;4.00;;;;;;;;;;4860752;29;20041;-78
2022/10/29 12:19:32;;;;;;;8.85;4.30;;;;;;;;;;4843229;29;20053;-79
2022/10/29 12:22:23;;;;;;;5.75;3.63;;;;;;;;;;4843030;29;20120;-80
2022/10/29 12:25:25;;;;;;;8.13;3.88;;;;;;;;;;4843435;29;20033;-76
2022/10/29 12:27:59;;;;;;;8.57;6.05;;;;;;;;;;4853685;29;20033;-78
2022/10/29 12:30:28;;;;;;;8.50;3.60;;;;;;;;;;4861263;29;20038;-77
2022/10/29 12:33:02;;;;;;;8.10;3.72;;;;;;;;;;4861705;29;20394;-77
2022/10/29 12:36:10;;;;;;;8.45;3.45;;;;;;;;;;4861331;29;20082;-76
2022/10/29 12:38:46;;;;;;;9.18;3.70;;;;;;;;;;4861283;29;20416;-77
2022/10/29 12:41:30;;;;;;;8.68;3.38;;;;;;;;;;4860627;29;20093;-78
2022/10/29 12:44:25;;;;;;;6.15;3.53;;;;;;;;;;4861495;29;20029;-76
2022/10/29 12:47:24;;;;;;;7.80;3.53;;;;;;;;;;4846999;29;20060;-77
2022/10/29 12:50:13;;;;;;;9.20;3.97;;;;;;;;;;4861313;29;20041;-77
2022/10/29 12:53:14;;;;;;;7.35;3.45;;;;;;;;;;4860713;29;20030;-78
2022/10/29 12:55:41;;;;;;;7.30;3.45;;;;;;;;;;4860227;29;20130;-80
2022/10/29 12:58:45;;;;;;;6.68;3.40;;;;;;;;;;4861239;29;20029;-77
2022/10/29 13:01:34;;;;;;;7.50;3.67;;;;;;;;;;4860036;29;20041;-77
2022/10/29 13:04:01;;;;;;;7.35;4.65;;;;;;;;;;4860979;29;20512;-78
2022/10/29 13:06:42;;;;;;;6.32;4.75;;;;;;;;;;4860853;29;20025;-76
2022/10/29 13:09:26;;;;;;;6.75;4.80;;;;;;;;;;4861213;29;20062;-79
2022/10/29 13:12:13;;;;;;;8.38;4.63;;;;;;;;;;4861368;29;20044;-78
2022/10/29 13:14:48;;;;;;;10.63;8.02;;;;;;;;;;4861056;29;20048;-78
2022/10/29 13:17:31;;;;;;;11.70;6.70;;;;;;;;;;4860514;29;20038;-77
2022/10/29 13:20:05;;;;;;;12.48;4.80;;;;;;;;;;4860955;29;20485;-79
2022/10/29 13:22:46;;;;;;;6.63;3.63;;;;;;;;;;4860740;29;20034;-77
2022/10/29 13:25:37;;;;;;;6.65;3.78;;;;;;;;;;4842537;29;20038;-79
2022/10/29 13:28:09;;;;;;;6.70;3.75;;;;;;;;;;4842642;29;20041;-79
2022/10/29 13:30:39;;;;;;;6.80;3.70;;;;;;;;;;4848201;29;20504;-79
2022/10/29 13:33:20;;;;;;;9.00;4.15;;;;;;;;;;4860603;29;20037;-78
2022/10/29 13:36:20;;;;;;;6.53;4.43;;;;;;;;;;4858308;29;20149;-78
2022/10/29 13:38:48;;;;;;;4.90;3.50;;;;;;;;;;4855745;29;20485;-78
2022/10/29 13:41:31;;;;;;;5.97;3.90;;;;;;;;;;4860760;29;20057;-77
2022/10/29 13:44:24;;;;;;;5.60;3.40;;;;;;;;;;4860071;29;20097;-76
2022/10/29 13:47:01;;;;;;;5.10;3.30;;;;;;;;;;4859030;29;20049;-78
2022/10/29 13:49:29;;;;;;;5.72;3.60;;;;;;;;;;4860366;29;20438;-76
2022/10/29 13:52:03;;;;;;;7.45;3.63;;;;;;;;;;4860252;29;20033;-78
2022/10/29 13:55:01;;;;;;;5.35;3.40;;;;;;;;;;4851105;29;20029;-78
2022/10/29 13:57:35;;;;;;;8.82;3.45;;;;;;;;;;4850530;29;20065;-78
2022/10/29 14:00:17;;;;;;;7.60;3.88;;;;;;;;;;4850436;29;20094;-78
2022/10/29 14:02:43;;;;;;;6.80;3.72;;;;;;;;;;4850921;29;20502;-78
2022/10/29 14:05:22;;;;;;;8.82;3.78;;;;;;;;;;4849622;29;20061;-78
2022/10/29 14:07:50;;;;;;;11.23;3.53;;;;;;;;;;4851135;29;20045;-78
2022/10/29 14:10:24;;;;;;;5.40;3.55;;;;;;;;;;4851957;29;20066;-78
2022/10/29 14:12:55;;;;;;;7.75;3.83;;;;;;;;;;4847153;29;20117;-77
2022/10/29 14:15:21;;;;;;;6.65;3.75;;;;;;;;;;4853080;29;20030;-77
2022/10/29 14:17:46;;;;;;;6.70;3.80;;;;;;;;;;4852366;29;20029;-76
2022/10/29 14:20:39;;;;;;;7.55;4.05;;;;;;;;;;4856784;29;20405;-75
2022/10/29 14:23:08;;;;;;;5.13;3.40;;;;;;;;;;4844077;29;20061;-76
2022/10/29 14:25:35;;;;;;;7.82;3.50;;;;;;;;;;4864200;29;20032;-78
2022/10/29 14:28:25;;;;;;;8.00;3.15;;;;;;;;;;4868758;29;20101;-78
2022/10/29 14:31:12;;;;;;;6.30;3.80;;;;;;;;;;4849841;29;20049;-78
2022/10/29 14:33:40;;;;;;;5.50;4.22;;;;;;;;;;4847256;29;20037;-78
2022/10/29 14:36:20;;;;;;;6.80;4.10;;;;;;;;;;4850714;29;20072;-79
2022/10/29 14:39:16;;;;;;;5.10;3.28;;;;;;;;;;4851617;29;20030;-78
2022/10/29 14:41:42;;;;;;;6.43;3.15;;;;;;;;;;4849860;29;20026;-79
2022/10/29 14:44:17;;;;;;;6.10;3.85;;;;;;;;;;4853519;29;20025;-78
2022/10/29 14:46:52;;;;;;;5.03;3.03;;;;;;;;;;4848054;29;20157;-78
2022/10/29 14:49:20;;;;;;;6.45;3.28;;;;;;;;;;4859638;29;20580;-76
2022/10/29 14:51:59;;;;;;;9.10;4.68;;;;;;;;;;4865779;29;20021;-79
2022/10/29 14:54:32;;;;;;;7.70;4.18;;;;;;;;;;4886084;29;20037;-78
2022/10/29 14:57:21;;;;;;;9.38;3.75;;;;;;;;;;4860965;29;20029;-77
2022/10/29 14:59:51;;;;;;;5.32;3.13;;;;;;;;;;4870798;29;20141;-78
2022/10/29 15:02:17;;;;;;;7.50;4.30;;;;;;;;;;4855460;29;20029;-78
2022/10/29 15:04:55;;;;;;;7.32;3.90;;;;;;;;;;4861992;29;20104;-76
2022/10/29 15:07:22;;;;;;;8.85;3.33;;;;;;;;;;4860253;29;20438;-77
2022/10/29 15:09:49;;;;;;;8.85;3.58;;;;;;;;;;4857683;29;20029;-78